Time;durP1;ratioP1;P1;durP2;ratioP2;P2;SDS_P1;SDS_P2;PMS_P1;PMS_P2;Temp;Humidity;BMP_temperature;BMP_pressure;BME280_temperature;BME280_humidity;BME280_pressure;Samples;Min_cycle;Max_cycle;Signal;HPM_P1;HPM_P2
2021/06/16 00:00:15;;;;;;;5.43;2.17;;;;;;;;;;4438267;32;20196;-73
2021/06/16 00:02:41;;;;;;;8.35;2.30;;;;;;;;;;4438702;32;20137;-73
2021/06/16 00:05:08;;;;;;;7.05;2.40;;;;;;;;;;4435993;32;20145;-74
2021/06/16 00:07:34;;;;;;;10.25;2.35;;;;;;;;;;4435669;32;20153;-73
2021/06/16 00:09:59;;;;;;;6.70;2.28;;;;;;;;;;4437601;32;20153;-73
2021/06/16 00:12:26;;;;;;;6.43;2.10;;;;;;;;;;4436839;32;20552;-73
2021/06/16 00:14:51;;;;;;;7.45;2.30;;;;;;;;;;4437177;32;20247;-73
2021/06/16 00:17:16;;;;;;;5.75;2.37;;;;;;;;;;4421328;32;20161;-73
2021/06/16 00:19:41;;;;;;;8.50;2.50;;;;;;;;;;4436394;32;20149;-74
2021/06/16 00:22:06;;;;;;;6.65;2.33;;;;;;;;;;4438641;32;20229;-73
2021/06/16 00:24:32;;;;;;;5.97;2.45;;;;;;;;;;4435851;32;20256;-74
2021/06/16 00:26:57;;;;;;;8.15;2.20;;;;;;;;;;4423852;32;20257;-73
2021/06/16 00:29:22;;;;;;;7.22;2.60;;;;;;;;;;4437641;32;20138;-73
2021/06/16 00:31:48;;;;;;;7.00;2.50;;;;;;;;;;4436677;32;20160;-73
2021/06/16 00:34:13;;;;;;;7.60;2.70;;;;;;;;;;4424338;32;20527;-73
2021/06/16 00:36:38;;;;;;;9.25;3.25;;;;;;;;;;4437329;32;20232;-73
2021/06/16 00:39:06;;;;;;;7.97;2.95;;;;;;;;;;4436866;32;20142;-73
2021/06/16 00:41:32;;;;;;;9.10;2.97;;;;;;;;;;4437508;32;20159;-73
2021/06/16 00:43:57;;;;;;;10.48;3.40;;;;;;;;;;4421799;32;20533;-73
2021/06/16 00:46:22;;;;;;;6.37;2.77;;;;;;;;;;4437729;32;20154;-73
2021/06/16 00:48:47;;;;;;;7.10;3.13;;;;;;;;;;4436102;32;20583;-73
2021/06/16 00:51:12;;;;;;;8.63;3.70;;;;;;;;;;4436994;32;20241;-72
2021/06/16 00:53:38;;;;;;;8.30;3.65;;;;;;;;;;4436249;32;20149;-73
2021/06/16 00:56:03;;;;;;;7.60;3.00;;;;;;;;;;4437278;32;20199;-74
2021/06/16 00:58:28;;;;;;;8.85;3.40;;;;;;;;;;4436270;32;20540;-74
2021/06/16 01:01:03;;;;;;;6.53;3.22;;;;;;;;;;4434958;32;20566;-74
2021/06/16 01:03:47;;;;;;;10.77;3.35;;;;;;;;;;4435616;32;20168;-73
2021/06/16 01:06:17;;;;;;;8.13;3.55;;;;;;;;;;4437155;32;20133;-74
2021/06/16 01:08:47;;;;;;;6.57;3.40;;;;;;;;;;4436850;32;20543;-73
2021/06/16 01:11:13;;;;;;;9.23;3.45;;;;;;;;;;4435484;32;20128;-74
2021/06/16 01:13:47;;;;;;;5.18;3.30;;;;;;;;;;4435619;32;20145;-73
2021/06/16 01:16:27;;;;;;;10.73;4.10;;;;;;;;;;4422964;32;20494;-73
2021/06/16 01:18:54;;;;;;;7.80;3.37;;;;;;;;;;4437222;32;20166;-73
2021/06/16 01:21:19;;;;;;;5.68;3.40;;;;;;;;;;4437092;32;20192;-74
2021/06/16 01:24:02;;;;;;;9.68;3.75;;;;;;;;;;4422582;32;20241;-73
2021/06/16 01:26:28;;;;;;;8.75;3.70;;;;;;;;;;4435461;32;20141;-73
2021/06/16 01:28:59;;;;;;;9.07;4.10;;;;;;;;;;4437201;32;20137;-72
2021/06/16 01:31:25;;;;;;;7.87;4.00;;;;;;;;;;4436513;32;20157;-73
2021/06/16 01:33:51;;;;;;;9.55;4.15;;;;;;;;;;4436964;32;20428;-74
2021/06/16 01:36:16;;;;;;;11.43;4.00;;;;;;;;;;4435096;32;20573;-73
2021/06/16 01:38:43;;;;;;;8.95;4.20;;;;;;;;;;4435303;32;20220;-73
2021/06/16 01:41:09;;;;;;;9.20;3.70;;;;;;;;;;4436353;32;20550;-74
2021/06/16 01:43:34;;;;;;;10.40;4.53;;;;;;;;;;4434618;32;20239;-74
2021/06/16 01:46:00;;;;;;;7.95;3.37;;;;;;;;;;4435010;32;20487;-74
2021/06/16 01:48:26;;;;;;;12.07;4.22;;;;;;;;;;4434731;32;20177;-73
2021/06/16 01:50:52;;;;;;;9.88;4.47;;;;;;;;;;4436719;32;20160;-73
2021/06/16 01:53:18;;;;;;;8.73;4.10;;;;;;;;;;4435066;32;20153;-74
2021/06/16 01:55:44;;;;;;;9.73;3.85;;;;;;;;;;4436209;32;20160;-74
2021/06/16 01:58:10;;;;;;;13.02;4.25;;;;;;;;;;4422267;32;20161;-74
2021/06/16 02:00:37;;;;;;;6.25;4.00;;;;;;;;;;4436340;32;20218;-73
2021/06/16 02:03:03;;;;;;;8.73;3.75;;;;;;;;;;4435673;32;20172;-73
2021/06/16 02:05:29;;;;;;;8.30;4.45;;;;;;;;;;4434791;32;20141;-75
2021/06/16 02:07:57;;;;;;;11.05;4.57;;;;;;;;;;4422581;32;20161;-74
2021/06/16 02:10:28;;;;;;;12.77;4.50;;;;;;;;;;4437006;32;20159;-73
2021/06/16 02:12:57;;;;;;;7.07;3.90;;;;;;;;;;4421053;32;20164;-73
2021/06/16 02:15:24;;;;;;;8.70;4.20;;;;;;;;;;4434207;32;20160;-73
2021/06/16 02:17:51;;;;;;;10.82;4.45;;;;;;;;;;4434457;32;20133;-74
2021/06/16 02:20:22;;;;;;;10.00;4.90;;;;;;;;;;4435149;32;20141;-74
2021/06/16 02:22:49;;;;;;;9.13;4.57;;;;;;;;;;4436548;32;20164;-75
2021/06/16 02:25:15;;;;;;;10.35;4.35;;;;;;;;;;4435650;32;20134;-73
2021/06/16 02:27:41;;;;;;;11.25;4.57;;;;;;;;;;4435173;32;20149;-74
2021/06/16 02:30:06;;;;;;;13.40;5.10;;;;;;;;;;4436352;32;20535;-74
2021/06/16 02:32:31;;;;;;;7.90;4.32;;;;;;;;;;4436530;32;20224;-73
2021/06/16 02:34:58;;;;;;;13.32;4.95;;;;;;;;;;4434054;32;20160;-74
2021/06/16 02:37:23;;;;;;;7.55;4.47;;;;;;;;;;4436442;32;20635;-74
2021/06/16 02:39:57;;;;;;;8.45;4.15;;;;;;;;;;4436339;32;20141;-74
2021/06/16 02:42:23;;;;;;;10.65;4.82;;;;;;;;;;4436364;32;20150;-74
2021/06/16 02:44:49;;;;;;;8.95;4.80;;;;;;;;;;4435314;32;20152;-74
2021/06/16 02:47:15;;;;;;;9.75;4.70;;;;;;;;;;4422328;32;20187;-73
2021/06/16 02:49:42;;;;;;;11.12;4.75;;;;;;;;;;4435050;32;20181;-73
2021/06/16 02:52:11;;;;;;;10.68;5.00;;;;;;;;;;4421204;32;20554;-73
2021/06/16 02:54:37;;;;;;;9.90;4.80;;;;;;;;;;4434906;32;20463;-73
2021/06/16 02:57:03;;;;;;;9.75;4.82;;;;;;;;;;4435642;32;20133;-73
2021/06/16 02:59:30;;;;;;;9.75;4.78;;;;;;;;;;4433148;32;20140;-73
2021/06/16 03:01:55;;;;;;;8.75;5.00;;;;;;;;;;4418759;32;20273;-73
2021/06/16 03:04:21;;;;;;;8.05;4.72;;;;;;;;;;4433096;32;20531;-73
2021/06/16 03:06:46;;;;;;;11.85;4.93;;;;;;;;;;4433430;32;20555;-74
2021/06/16 03:09:12;;;;;;;9.43;4.80;;;;;;;;;;4437714;32;20197;-73
2021/06/16 03:11:38;;;;;;;10.30;5.03;;;;;;;;;;4423103;32;20189;-73
2021/06/16 03:14:03;;;;;;;10.90;5.43;;;;;;;;;;4437416;32;20129;-73
2021/06/16 03:16:29;;;;;;;11.02;5.85;;;;;;;;;;4438484;32;20130;-73
2021/06/16 03:18:54;;;;;;;8.73;5.05;;;;;;;;;;4435521;32;20216;-72
2021/06/16 03:21:20;;;;;;;8.95;5.22;;;;;;;;;;4436279;32;20153;-73
2021/06/16 03:23:47;;;;;;;13.18;5.25;;;;;;;;;;4438076;32;20172;-73
2021/06/16 03:26:12;;;;;;;9.05;5.25;;;;;;;;;;4436758;32;20133;-74
2021/06/16 03:28:38;;;;;;;11.75;5.05;;;;;;;;;;4436359;32;20593;-73
2021/06/16 03:31:05;;;;;;;11.88;5.28;;;;;;;;;;4423437;32;20188;-73
2021/06/16 03:33:30;;;;;;;8.65;4.62;;;;;;;;;;4432259;32;20161;-70
2021/06/16 03:35:55;;;;;;;10.50;4.53;;;;;;;;;;4426147;32;20542;-72
2021/06/16 03:38:20;;;;;;;10.98;5.53;;;;;;;;;;4428035;32;20141;-73
2021/06/16 03:40:49;;;;;;;11.98;5.57;;;;;;;;;;4420181;32;20142;-73
2021/06/16 03:43:15;;;;;;;9.10;5.43;;;;;;;;;;4408203;32;20224;-74
2021/06/16 03:45:41;;;;;;;8.55;4.85;;;;;;;;;;4422487;32;20134;-73
2021/06/16 03:48:07;;;;;;;8.65;5.22;;;;;;;;;;4423301;32;20182;-74
2021/06/16 03:50:33;;;;;;;12.85;5.57;;;;;;;;;;4435797;32;20273;-74
2021/06/16 03:52:59;;;;;;;11.20;5.40;;;;;;;;;;4437518;32;20558;-74
2021/06/16 03:55:24;;;;;;;10.73;5.55;;;;;;;;;;4438898;32;20222;-73
2021/06/16 03:57:49;;;;;;;11.05;5.62;;;;;;;;;;4438985;32;20557;-73
2021/06/16 04:00:15;;;;;;;11.43;5.75;;;;;;;;;;4438369;32;20181;-73
2021/06/16 04:02:40;;;;;;;14.15;5.60;;;;;;;;;;4438751;32;20168;-73
2021/06/16 04:05:07;;;;;;;11.23;6.12;;;;;;;;;;4438542;32;20134;-73
2021/06/16 04:07:33;;;;;;;9.68;5.10;;;;;;;;;;4438743;32;20141;-74
2021/06/16 04:09:58;;;;;;;9.00;5.70;;;;;;;;;;4438434;32;20141;-73
2021/06/16 04:12:24;;;;;;;12.27;5.47;;;;;;;;;;4438142;32;20142;-73
2021/06/16 04:14:50;;;;;;;10.07;5.15;;;;;;;;;;4438245;32;20156;-73
2021/06/16 04:17:19;;;;;;;11.00;5.15;;;;;;;;;;4438397;32;20168;-74
2021/06/16 04:19:44;;;;;;;9.90;4.68;;;;;;;;;;4436401;32;20609;-73
2021/06/16 04:22:09;;;;;;;10.98;5.03;;;;;;;;;;4436231;32;20186;-73
2021/06/16 04:24:34;;;;;;;12.25;5.45;;;;;;;;;;4437795;32;20191;-73
2021/06/16 04:27:00;;;;;;;11.60;5.87;;;;;;;;;;4437157;32;20244;-72
2021/06/16 04:29:25;;;;;;;11.75;5.70;;;;;;;;;;4436419;32;20303;-73
2021/06/16 04:31:50;;;;;;;8.45;5.35;;;;;;;;;;4437245;32;20160;-74
2021/06/16 04:34:16;;;;;;;9.10;5.10;;;;;;;;;;4437294;32;20434;-73
2021/06/16 04:36:41;;;;;;;11.95;5.72;;;;;;;;;;4437389;32;20141;-74
2021/06/16 04:39:06;;;;;;;13.20;6.00;;;;;;;;;;4436836;32;20150;-74
2021/06/16 04:41:31;;;;;;;15.07;6.28;;;;;;;;;;4438455;32;20130;-73
2021/06/16 04:43:56;;;;;;;12.18;5.90;;;;;;;;;;4437276;32;20554;-72
2021/06/16 04:46:24;;;;;;;12.03;5.63;;;;;;;;;;4438135;32;20152;-73
2021/06/16 04:48:49;;;;;;;11.75;5.90;;;;;;;;;;4438001;32;20304;-73
2021/06/16 04:51:14;;;;;;;12.13;5.30;;;;;;;;;;4437771;32;20219;-73
2021/06/16 04:53:39;;;;;;;10.57;5.18;;;;;;;;;;4436507;32;20269;-73
2021/06/16 04:56:04;;;;;;;8.98;4.80;;;;;;;;;;4436609;32;20180;-73
2021/06/16 04:58:30;;;;;;;16.00;6.05;;;;;;;;;;4436604;32;20237;-72
2021/06/16 05:00:55;;;;;;;12.52;5.95;;;;;;;;;;4437799;32;20164;-73
2021/06/16 05:03:20;;;;;;;8.73;5.28;;;;;;;;;;4437812;32;20225;-73
2021/06/16 05:05:45;;;;;;;11.10;5.50;;;;;;;;;;4437610;32;20611;-73
2021/06/16 05:08:10;;;;;;;11.23;5.62;;;;;;;;;;4437270;32;20200;-73
2021/06/16 05:10:35;;;;;;;11.88;5.28;;;;;;;;;;4438017;32;20225;-73
2021/06/16 05:13:01;;;;;;;11.57;5.70;;;;;;;;;;4436882;32;20159;-73
2021/06/16 05:15:26;;;;;;;8.15;4.87;;;;;;;;;;4432981;32;20133;-73
2021/06/16 05:17:51;;;;;;;11.57;5.93;;;;;;;;;;4432601;32;20130;-73
2021/06/16 05:20:16;;;;;;;10.93;5.70;;;;;;;;;;4433567;32;20164;-72
2021/06/16 05:22:42;;;;;;;19.95;6.15;;;;;;;;;;4436632;32;20134;-73
2021/06/16 05:25:08;;;;;;;18.10;6.18;;;;;;;;;;4421841;32;20153;-73
2021/06/16 05:27:34;;;;;;;14.40;6.62;;;;;;;;;;4437656;32;20142;-74
2021/06/16 05:30:00;;;;;;;12.35;5.82;;;;;;;;;;4435266;32;20589;-73
2021/06/16 05:32:25;;;;;;;24.33;6.22;;;;;;;;;;4437733;32;20187;-73
2021/06/16 05:34:51;;;;;;;12.32;5.53;;;;;;;;;;4437136;32;20145;-73
2021/06/16 05:37:17;;;;;;;12.48;5.97;;;;;;;;;;4422967;32;20146;-73
2021/06/16 05:39:42;;;;;;;9.38;5.70;;;;;;;;;;4436943;32;20152;-73
2021/06/16 05:42:07;;;;;;;18.15;7.40;;;;;;;;;;4435852;32;20588;-73
2021/06/16 05:44:32;;;;;;;22.00;7.15;;;;;;;;;;4435993;32;20227;-73
2021/06/16 05:46:57;;;;;;;13.27;5.68;;;;;;;;;;4435586;32;20130;-73
2021/06/16 05:49:23;;;;;;;18.50;7.10;;;;;;;;;;4437062;32;20133;-72
2021/06/16 05:51:48;;;;;;;17.50;6.60;;;;;;;;;;4419948;32;20490;-73
2021/06/16 05:54:13;;;;;;;18.20;6.80;;;;;;;;;;4421033;32;20177;-72
2021/06/16 05:56:39;;;;;;;14.87;5.10;;;;;;;;;;4421508;32;20169;-73
2021/06/16 05:59:04;;;;;;;12.60;5.80;;;;;;;;;;4422083;32;20334;-73
2021/06/16 06:01:30;;;;;;;16.40;6.68;;;;;;;;;;4422550;32;20255;-73
2021/06/16 06:03:55;;;;;;;14.85;6.60;;;;;;;;;;4421549;32;20188;-75
2021/06/16 06:06:20;;;;;;;12.45;6.68;;;;;;;;;;4420911;32;20173;-74
2021/06/16 06:08:45;;;;;;;8.60;5.80;;;;;;;;;;4422336;32;20189;-73
2021/06/16 06:11:10;;;;;;;13.32;5.82;;;;;;;;;;4433261;32;20180;-73
2021/06/16 06:13:36;;;;;;;16.50;6.40;;;;;;;;;;4426054;32;20313;-73
2021/06/16 06:16:01;;;;;;;13.38;7.07;;;;;;;;;;4436080;32;20176;-72
2021/06/16 06:18:26;;;;;;;14.40;6.27;;;;;;;;;;4434519;32;20455;-73
2021/06/16 06:20:51;;;;;;;13.00;6.28;;;;;;;;;;4435993;32;20229;-75
2021/06/16 06:23:16;;;;;;;16.05;6.15;;;;;;;;;;4434670;32;20332;-73
2021/06/16 06:25:41;;;;;;;12.50;6.03;;;;;;;;;;4434885;32;20149;-74
2021/06/16 06:28:07;;;;;;;12.57;5.20;;;;;;;;;;4420421;32;20157;-72
2021/06/16 06:30:32;;;;;;;12.90;5.65;;;;;;;;;;4428365;32;20335;-72
2021/06/16 06:32:57;;;;;;;10.55;5.72;;;;;;;;;;4433848;32;20558;-74
2021/06/16 06:35:22;;;;;;;10.73;5.62;;;;;;;;;;4432701;32;20620;-73
2021/06/16 06:37:47;;;;;;;13.87;6.20;;;;;;;;;;4434399;32;20182;-74
2021/06/16 06:40:13;;;;;;;15.03;5.73;;;;;;;;;;4433488;32;20240;-74
2021/06/16 06:42:38;;;;;;;12.65;5.53;;;;;;;;;;4435749;32;20228;-73
2021/06/16 06:45:07;;;;;;;12.35;5.37;;;;;;;;;;4437332;32;20168;-73
2021/06/16 06:47:32;;;;;;;12.10;6.15;;;;;;;;;;4437350;32;20163;-73
2021/06/16 06:49:58;;;;;;;9.93;5.20;;;;;;;;;;4438457;32;20234;-73
2021/06/16 06:52:23;;;;;;;12.50;6.07;;;;;;;;;;4438464;32;20188;-72
2021/06/16 06:54:48;;;;;;;10.20;5.30;;;;;;;;;;4438002;32;20197;-73
2021/06/16 06:57:13;;;;;;;11.65;5.32;;;;;;;;;;4439551;32;20130;-73
2021/06/16 06:59:38;;;;;;;14.45;5.60;;;;;;;;;;4436935;32;20184;-73
2021/06/16 07:02:04;;;;;;;9.95;6.12;;;;;;;;;;4436685;32;20164;-72
2021/06/16 07:04:29;;;;;;;10.03;4.57;;;;;;;;;;4437151;32;20489;-73
2021/06/16 07:06:54;;;;;;;9.85;5.25;;;;;;;;;;4423392;32;20261;-73
2021/06/16 07:09:20;;;;;;;13.32;5.80;;;;;;;;;;4423536;32;20474;-73
2021/06/16 07:11:45;;;;;;;12.52;4.78;;;;;;;;;;4438758;32;20169;-73
2021/06/16 07:14:10;;;;;;;8.35;3.83;;;;;;;;;;4437032;32;20130;-72
2021/06/16 07:16:35;;;;;;;9.45;3.92;;;;;;;;;;4437531;32;20176;-73
2021/06/16 07:19:00;;;;;;;10.23;4.97;;;;;;;;;;4439656;32;20484;-73
2021/06/16 07:21:26;;;;;;;7.60;4.30;;;;;;;;;;4423482;32;20387;-72
2021/06/16 07:23:51;;;;;;;11.15;5.57;;;;;;;;;;4437622;32;20145;-73
2021/06/16 07:26:16;;;;;;;8.75;4.93;;;;;;;;;;4438332;32;20560;-73
2021/06/16 07:28:41;;;;;;;10.80;4.87;;;;;;;;;;4438821;32;20150;-73
2021/06/16 07:31:07;;;;;;;37.40;7.07;;;;;;;;;;4437017;32;20168;-73
2021/06/16 07:33:33;;;;;;;13.82;4.93;;;;;;;;;;4422833;32;20240;-74
2021/06/16 07:35:58;;;;;;;7.15;3.95;;;;;;;;;;4438628;32;20140;-73
2021/06/16 07:38:24;;;;;;;8.48;3.80;;;;;;;;;;4437471;32;20187;-72
2021/06/16 07:40:49;;;;;;;7.47;4.18;;;;;;;;;;4421811;32;20583;-73
2021/06/16 07:43:15;;;;;;;9.02;3.80;;;;;;;;;;4428946;32;20213;-76
2021/06/16 07:45:41;;;;;;;7.45;2.90;;;;;;;;;;4432244;32;20304;-73
2021/06/16 07:48:06;;;;;;;9.23;3.43;;;;;;;;;;4436111;32;20609;-72
2021/06/16 07:50:31;;;;;;;7.47;3.50;;;;;;;;;;4436682;32;20229;-72
2021/06/16 07:52:56;;;;;;;9.35;3.87;;;;;;;;;;4436683;32;20188;-73
2021/06/16 07:55:22;;;;;;;30.20;5.90;;;;;;;;;;4438345;32;20149;-73
2021/06/16 07:57:47;;;;;;;8.70;3.95;;;;;;;;;;4436235;32;20141;-73
2021/06/16 08:00:12;;;;;;;6.30;3.40;;;;;;;;;;4436737;32;20172;-73
2021/06/16 08:02:39;;;;;;;6.32;3.25;;;;;;;;;;4423420;32;20214;-73
2021/06/16 08:05:05;;;;;;;9.60;3.80;;;;;;;;;;4422407;32;20282;-72
2021/06/16 08:07:30;;;;;;;6.05;3.20;;;;;;;;;;4438185;32;20606;-74
2021/06/16 08:09:55;;;;;;;7.07;3.40;;;;;;;;;;4436177;32;20285;-72
2021/06/16 08:12:20;;;;;;;9.30;4.10;;;;;;;;;;4437989;32;20228;-72
2021/06/16 08:14:46;;;;;;;7.80;3.73;;;;;;;;;;4421227;32;20168;-73
2021/06/16 08:17:11;;;;;;;11.18;3.85;;;;;;;;;;4437676;32;20233;-74
2021/06/16 08:19:36;;;;;;;8.45;3.45;;;;;;;;;;4437434;32;20195;-73
2021/06/16 08:22:02;;;;;;;11.90;4.45;;;;;;;;;;4436944;32;20161;-73
2021/06/16 08:24:27;;;;;;;25.30;5.72;;;;;;;;;;4435678;32;20168;-73
2021/06/16 08:26:53;;;;;;;14.27;4.05;;;;;;;;;;4437693;32;20134;-72
2021/06/16 08:29:19;;;;;;;8.02;4.00;;;;;;;;;;4423292;32;20177;-73
2021/06/16 08:31:44;;;;;;;11.18;4.18;;;;;;;;;;4436159;32;20145;-72
2021/06/16 08:34:09;;;;;;;15.80;5.12;;;;;;;;;;4436245;32;20129;-72
2021/06/16 08:36:35;;;;;;;10.52;4.50;;;;;;;;;;4421195;32;20161;-73
2021/06/16 08:39:01;;;;;;;11.12;4.68;;;;;;;;;;4436763;32;20228;-73
2021/06/16 08:41:26;;;;;;;9.18;3.17;;;;;;;;;;4436997;32;20443;-72
2021/06/16 08:43:52;;;;;;;14.07;3.50;;;;;;;;;;4436406;32;20149;-74
2021/06/16 08:46:18;;;;;;;16.15;4.22;;;;;;;;;;4435799;32;20523;-72
2021/06/16 08:48:44;;;;;;;11.73;3.85;;;;;;;;;;4435847;32;20196;-72
2021/06/16 08:51:12;;;;;;;8.63;3.33;;;;;;;;;;4437705;32;20574;-73
2021/06/16 08:53:37;;;;;;;4.97;2.83;;;;;;;;;;4435181;32;20157;-73
2021/06/16 08:56:03;;;;;;;8.27;3.50;;;;;;;;;;4421145;32;20190;-72
2021/06/16 08:58:33;;;;;;;6.80;3.10;;;;;;;;;;4422838;32;20257;-71
2021/06/16 09:00:58;;;;;;;9.57;3.47;;;;;;;;;;4434726;32;20545;-72
2021/06/16 09:03:23;;;;;;;7.23;3.73;;;;;;;;;;4435675;32;20142;-73
2021/06/16 09:05:49;;;;;;;5.77;3.40;;;;;;;;;;4435487;32;20221;-73
2021/06/16 09:08:19;;;;;;;8.07;3.62;;;;;;;;;;4434902;32;20252;-73
2021/06/16 09:10:45;;;;;;;12.20;3.78;;;;;;;;;;4421822;32;20176;-72
2021/06/16 09:13:11;;;;;;;8.25;2.62;;;;;;;;;;4425397;32;20242;-74
2021/06/16 09:15:38;;;;;;;10.68;4.00;;;;;;;;;;4424359;32;20613;-70
2021/06/16 09:18:04;;;;;;;7.20;3.95;;;;;;;;;;4419586;32;20142;-72
2021/06/16 09:20:37;;;;;;;10.52;3.10;;;;;;;;;;4433237;32;20175;-73
2021/06/16 09:23:12;;;;;;;10.57;3.60;;;;;;;;;;4434598;32;20183;-73
2021/06/16 09:25:37;;;;;;;6.25;2.70;;;;;;;;;;4432321;32;20218;-73
2021/06/16 09:28:03;;;;;;;5.90;2.97;;;;;;;;;;4421594;32;20309;-73
2021/06/16 09:30:32;;;;;;;14.98;3.60;;;;;;;;;;4420284;32;20431;-73
2021/06/16 09:32:58;;;;;;;7.70;3.00;;;;;;;;;;4417015;32;20289;-73
2021/06/16 09:35:25;;;;;;;15.43;4.25;;;;;;;;;;4433427;32;20300;-73
2021/06/16 09:37:51;;;;;;;9.15;4.00;;;;;;;;;;4429304;32;20192;-72
2021/06/16 09:40:29;;;;;;;8.27;2.90;;;;;;;;;;4420831;32;20606;-72
2021/06/16 09:43:05;;;;;;;15.15;4.05;;;;;;;;;;4434994;32;20153;-72
2021/06/16 09:45:30;;;;;;;7.72;3.55;;;;;;;;;;4437207;32;20151;-73
2021/06/16 09:47:55;;;;;;;9.05;3.37;;;;;;;;;;4436616;32;20593;-72
2021/06/16 09:50:23;;;;;;;5.47;2.60;;;;;;;;;;4435528;32;20161;-74
2021/06/16 09:52:49;;;;;;;9.52;3.85;;;;;;;;;;4436069;32;20275;-74
2021/06/16 09:55:20;;;;;;;6.62;3.12;;;;;;;;;;4436776;32;20179;-73
2021/06/16 09:57:57;;;;;;;6.70;3.15;;;;;;;;;;4437146;32;20130;-72
2021/06/16 10:00:29;;;;;;;5.57;3.28;;;;;;;;;;4428359;32;20153;-73
2021/06/16 10:03:13;;;;;;;7.65;3.20;;;;;;;;;;4428443;32;20146;-73
2021/06/16 10:05:57;;;;;;;6.37;3.25;;;;;;;;;;4419613;32;20173;-73
2021/06/16 10:08:23;;;;;;;9.40;3.60;;;;;;;;;;4421312;32;20180;-73
2021/06/16 10:10:49;;;;;;;6.07;4.00;;;;;;;;;;4423940;32;20164;-73
2021/06/16 10:13:17;;;;;;;4.85;2.72;;;;;;;;;;4437251;32;20145;-72
2021/06/16 10:15:42;;;;;;;13.85;4.15;;;;;;;;;;4436674;32;20567;-73
2021/06/16 10:18:07;;;;;;;8.70;3.80;;;;;;;;;;4436652;32;20134;-73
2021/06/16 10:20:33;;;;;;;6.07;3.45;;;;;;;;;;4436197;32;20137;-73
2021/06/16 10:22:58;;;;;;;5.80;3.30;;;;;;;;;;4435423;32;20130;-73
2021/06/16 10:25:23;;;;;;;3.80;2.37;;;;;;;;;;4422129;32;20600;-73
2021/06/16 10:27:55;;;;;;;5.50;3.10;;;;;;;;;;4431287;32;20258;-74
2021/06/16 10:30:22;;;;;;;5.25;2.92;;;;;;;;;;4420615;32;20137;-73
2021/06/16 10:32:48;;;;;;;4.72;3.12;;;;;;;;;;4420131;32;20572;-73
2021/06/16 10:35:14;;;;;;;3.58;3.05;;;;;;;;;;4433142;32;20142;-73
2021/06/16 10:37:43;;;;;;;8.68;3.62;;;;;;;;;;4432403;32;20169;-72
2021/06/16 10:40:17;;;;;;;5.57;3.60;;;;;;;;;;4435263;32;20168;-73
2021/06/16 10:42:58;;;;;;;8.50;4.00;;;;;;;;;;4435669;32;20224;-73
2021/06/16 10:45:26;;;;;;;8.30;4.15;;;;;;;;;;4435127;32;20582;-73
2021/06/16 10:47:55;;;;;;;9.15;4.12;;;;;;;;;;4434967;32;20146;-72
2021/06/16 10:50:20;;;;;;;7.72;3.80;;;;;;;;;;4436581;32;20147;-73
2021/06/16 10:53:04;;;;;;;7.80;3.60;;;;;;;;;;4434803;32;20230;-72
2021/06/16 10:55:47;;;;;;;7.90;4.15;;;;;;;;;;4434527;32;20263;-74
2021/06/16 10:58:16;;;;;;;9.52;4.62;;;;;;;;;;4420612;32;20173;-72
2021/06/16 11:00:41;;;;;;;6.35;3.80;;;;;;;;;;4422158;32;20166;-73
2021/06/16 11:03:07;;;;;;;8.73;4.20;;;;;;;;;;4420709;32;20248;-74
2021/06/16 11:05:33;;;;;;;10.13;4.72;;;;;;;;;;4436264;32;20228;-73
2021/06/16 11:08:03;;;;;;;6.10;4.15;;;;;;;;;;4436518;32;20173;-72
2021/06/16 11:10:47;;;;;;;9.57;5.30;;;;;;;;;;4434738;32;20163;-73
2021/06/16 11:13:32;;;;;;;6.87;3.87;;;;;;;;;;4434620;32;20210;-73
2021/06/16 11:15:57;;;;;;;5.75;4.35;;;;;;;;;;4435445;32;20180;-74
2021/06/16 11:18:29;;;;;;;6.70;4.30;;;;;;;;;;4431455;32;20206;-72
2021/06/16 11:20:57;;;;;;;10.32;4.68;;;;;;;;;;4420842;32;20169;-72
2021/06/16 11:23:24;;;;;;;8.32;4.70;;;;;;;;;;4414891;32;20164;-73
2021/06/16 11:25:51;;;;;;;7.72;4.70;;;;;;;;;;4420186;32;20158;-73
2021/06/16 11:28:37;;;;;;;6.28;4.40;;;;;;;;;;4435754;32;20172;-74
2021/06/16 11:31:05;;;;;;;5.93;4.20;;;;;;;;;;4437717;32;20133;-72
2021/06/16 11:33:32;;;;;;;9.10;4.28;;;;;;;;;;4427301;32;20300;-72
2021/06/16 11:35:59;;;;;;;4.87;3.97;;;;;;;;;;4423540;32;20157;-73
2021/06/16 11:38:24;;;;;;;10.38;4.68;;;;;;;;;;4437151;32;20658;-72
2021/06/16 11:40:51;;;;;;;5.28;3.85;;;;;;;;;;4432040;32;20153;-73
2021/06/16 11:43:29;;;;;;;6.57;4.50;;;;;;;;;;4421458;32;20246;-73
2021/06/16 11:45:54;;;;;;;9.10;3.92;;;;;;;;;;4420423;32;20176;-73
2021/06/16 11:48:19;;;;;;;5.82;3.67;;;;;;;;;;4406682;32;20555;-72
2021/06/16 11:50:44;;;;;;;8.48;4.20;;;;;;;;;;4421615;32;20506;-73
2021/06/16 11:53:10;;;;;;;25.92;5.60;;;;;;;;;;4421049;32;20149;-73
2021/06/16 11:55:48;;;;;;;11.60;4.30;;;;;;;;;;4423011;32;20183;-75
2021/06/16 11:58:28;;;;;;;6.37;3.80;;;;;;;;;;4421258;32;20388;-73
2021/06/16 12:01:04;;;;;;;10.23;5.60;;;;;;;;;;4420979;32;20220;-74
2021/06/16 12:03:29;;;;;;;12.85;5.10;;;;;;;;;;4421990;32;20171;-73
2021/06/16 12:06:21;;;;;;;5.03;4.13;;;;;;;;;;4421849;32;20153;-74
2021/06/16 12:08:46;;;;;;;8.50;4.80;;;;;;;;;;4417088;32;20182;-73
2021/06/16 12:11:22;;;;;;;18.55;5.35;;;;;;;;;;4426275;32;20172;-73
2021/06/16 12:13:54;;;;;;;11.12;4.82;;;;;;;;;;4424574;32;20232;-74
2021/06/16 12:16:32;;;;;;;19.70;5.65;;;;;;;;;;4423374;32;20192;-73
2021/06/16 12:19:08;;;;;;;10.55;4.22;;;;;;;;;;4436677;32;20518;-74
2021/06/16 12:21:33;;;;;;;7.72;4.43;;;;;;;;;;4437334;32;20257;-74
2021/06/16 12:23:59;;;;;;;5.85;3.70;;;;;;;;;;4438302;32;20156;-74
2021/06/16 12:26:25;;;;;;;7.53;4.25;;;;;;;;;;4438006;32;20137;-73
2021/06/16 12:28:51;;;;;;;8.77;3.92;;;;;;;;;;4436157;32;20172;-73
2021/06/16 12:31:24;;;;;;;7.47;4.03;;;;;;;;;;4435860;32;20165;-73
2021/06/16 12:34:02;;;;;;;8.85;4.97;;;;;;;;;;4422358;32;20157;-73
2021/06/16 12:36:28;;;;;;;9.77;5.35;;;;;;;;;;4435604;32;20130;-74
2021/06/16 12:39:07;;;;;;;9.60;4.47;;;;;;;;;;4436992;32;20145;-73
2021/06/16 12:41:33;;;;;;;8.98;4.62;;;;;;;;;;4435467;32;20156;-74
2021/06/16 12:44:18;;;;;;;13.20;5.72;;;;;;;;;;4424010;32;20165;-73
2021/06/16 12:46:50;;;;;;;6.93;4.18;;;;;;;;;;4424018;32;20193;-74
2021/06/16 12:49:18;;;;;;;8.43;3.72;;;;;;;;;;4424205;32;20165;-74
2021/06/16 12:51:50;;;;;;;7.68;4.50;;;;;;;;;;4421737;32;20482;-74
2021/06/16 12:54:26;;;;;;;12.30;4.50;;;;;;;;;;4435407;32;20180;-74
2021/06/16 12:57:17;;;;;;;6.45;4.00;;;;;;;;;;4436852;32;20172;-74
2021/06/16 12:59:46;;;;;;;7.57;4.32;;;;;;;;;;4430751;32;20280;-73
2021/06/16 13:02:13;;;;;;;6.87;3.62;;;;;;;;;;4436080;32;20176;-74
2021/06/16 13:04:51;;;;;;;10.95;4.85;;;;;;;;;;4423126;32;20263;-74
2021/06/16 13:07:17;;;;;;;5.62;3.78;;;;;;;;;;4436877;32;20196;-74
2021/06/16 13:09:58;;;;;;;6.32;3.92;;;;;;;;;;4437371;32;20138;-74
2021/06/16 13:12:24;;;;;;;12.85;4.32;;;;;;;;;;4435860;32;20190;-74
2021/06/16 13:14:56;;;;;;;6.37;4.15;;;;;;;;;;4421437;32;20169;-74
2021/06/16 13:17:21;;;;;;;7.85;4.28;;;;;;;;;;4435695;32;20142;-74
2021/06/16 13:20:00;;;;;;;10.98;4.28;;;;;;;;;;4435293;32;20180;-73
2021/06/16 13:22:42;;;;;;;16.35;5.00;;;;;;;;;;4434985;32;20204;-73
2021/06/16 13:25:08;;;;;;;8.02;5.22;;;;;;;;;;4427371;32;20165;-73
2021/06/16 13:27:46;;;;;;;5.87;4.50;;;;;;;;;;4436012;32;20137;-73
2021/06/16 13:30:12;;;;;;;7.70;4.03;;;;;;;;;;4432947;32;20277;-72
2021/06/16 13:32:41;;;;;;;7.37;5.07;;;;;;;;;;4420059;32;20203;-74
2021/06/16 13:35:07;;;;;;;8.00;5.18;;;;;;;;;;4435900;32;20218;-72
2021/06/16 13:37:32;;;;;;;8.55;5.32;;;;;;;;;;4434086;32;20145;-72
2021/06/16 13:39:59;;;;;;;10.60;6.10;;;;;;;;;;4433407;32;20145;-73
2021/06/16 13:42:24;;;;;;;9.25;5.53;;;;;;;;;;4436115;32;20213;-74
2021/06/16 13:44:49;;;;;;;10.30;6.30;;;;;;;;;;4434776;32;20138;-73
2021/06/16 13:47:14;;;;;;;9.57;5.00;;;;;;;;;;4435823;32;20280;-73
2021/06/16 13:49:39;;;;;;;8.57;5.57;;;;;;;;;;4435559;32;20189;-73
2021/06/16 13:52:05;;;;;;;9.13;6.03;;;;;;;;;;4434990;32;20497;-74
2021/06/16 13:54:30;;;;;;;9.02;6.40;;;;;;;;;;4434488;32;20137;-73
2021/06/16 13:56:56;;;;;;;9.68;6.22;;;;;;;;;;4433351;32;20826;-73
2021/06/16 13:59:21;;;;;;;10.90;6.50;;;;;;;;;;4420614;32;20191;-73
2021/06/16 14:01:46;;;;;;;10.40;6.67;;;;;;;;;;4420564;32;20165;-73
2021/06/16 14:04:14;;;;;;;8.95;6.90;;;;;;;;;;4414036;32;20585;-72
2021/06/16 14:06:39;;;;;;;12.13;6.87;;;;;;;;;;4401957;32;20482;-73
2021/06/16 14:09:07;;;;;;;10.23;6.43;;;;;;;;;;4419776;32;20164;-74
2021/06/16 14:11:32;;;;;;;7.90;7.07;;;;;;;;;;4423470;32;20142;-74
2021/06/16 14:13:57;;;;;;;10.20;6.72;;;;;;;;;;4420825;32;20448;-73
2021/06/16 14:16:22;;;;;;;9.57;6.45;;;;;;;;;;4437062;32;20141;-73
2021/06/16 14:18:48;;;;;;;9.03;6.50;;;;;;;;;;4435216;32;20141;-73
2021/06/16 14:21:13;;;;;;;11.33;6.27;;;;;;;;;;4434533;32;20294;-73
2021/06/16 14:23:38;;;;;;;11.53;6.27;;;;;;;;;;4434934;32;20297;-73
2021/06/16 14:26:05;;;;;;;11.35;5.20;;;;;;;;;;4435226;32;20129;-75
2021/06/16 14:28:30;;;;;;;10.50;7.18;;;;;;;;;;4436362;32;20212;-74
2021/06/16 14:30:55;;;;;;;9.52;7.00;;;;;;;;;;4434635;32;20173;-74
2021/06/16 14:33:21;;;;;;;10.07;6.20;;;;;;;;;;4436214;32;20199;-73
2021/06/16 14:35:48;;;;;;;9.63;7.00;;;;;;;;;;4435226;32;20260;-74
2021/06/16 14:38:13;;;;;;;12.88;7.28;;;;;;;;;;4433496;32;20285;-70